Time;durP1;ratioP1;P1;durP2;ratioP2;P2;SDS_P1;SDS_P2;PMS_P1;PMS_P2;Temp;Humidity;BMP_temperature;BMP_pressure;BME280_temperature;BME280_humidity;BME280_pressure;Samples;Min_cycle;Max_cycle;Signal;HPM_P1;HPM_P2
2023/05/25 00:00:27;;;;;;;0.00;0.00;;;11.80;79.90;;;;;;5026571;28;20042;-68
2023/05/25 00:02:54;;;;;;;0.00;0.00;;;11.80;79.90;;;;;;5027517;28;20136;-68
2023/05/25 00:05:20;;;;;;;0.00;0.00;;;11.70;80.00;;;;;;5029191;28;20080;-68
2023/05/25 00:07:46;;;;;;;0.00;0.00;;;11.80;80.00;;;;;;5020659;28;20509;-68
2023/05/25 00:10:12;;;;;;;0.00;0.00;;;11.80;79.90;;;;;;5017876;28;20421;-68
2023/05/25 00:12:38;;;;;;;0.00;0.00;;;11.80;79.80;;;;;;5027751;28;20052;-68
2023/05/25 00:15:05;;;;;;;0.00;0.00;;;11.70;79.60;;;;;;5029032;28;20434;-68
2023/05/25 00:17:32;;;;;;;0.00;0.00;;;11.80;79.80;;;;;;5027949;28;20052;-68
2023/05/25 00:20:07;;;;;;;0.00;0.00;;;11.70;79.70;;;;;;5028669;28;20802;-68
2023/05/25 00:22:37;;;;;;;0.00;0.00;;;11.70;80.30;;;;;;5028504;28;20062;-68
2023/05/25 00:25:04;;;;;;;0.00;0.00;;;11.70;80.10;;;;;;5028500;28;20052;-68
2023/05/25 00:27:30;;;;;;;0.00;0.00;;;11.60;80.50;;;;;;5029143;28;20056;-68
2023/05/25 00:29:56;;;;;;;0.10;0.10;;;11.70;80.60;;;;;;5027034;28;20589;-68
2023/05/25 00:32:21;;;;;;;0.00;0.00;;;11.60;80.40;;;;;;5028672;28;20502;-68
2023/05/25 00:34:47;;;;;;;0.00;0.00;;;11.60;80.40;;;;;;5028569;28;20495;-68
2023/05/25 00:37:13;;;;;;;0.00;0.00;;;11.60;79.90;;;;;;5027494;28;20085;-68
2023/05/25 00:39:39;;;;;;;0.00;0.00;;;11.60;80.00;;;;;;5028498;28;20408;-68
2023/05/25 00:42:06;;;;;;;0.00;0.00;;;11.60;79.60;;;;;;5026723;28;20043;-68
2023/05/25 00:44:32;;;;;;;0.00;0.00;;;11.60;80.00;;;;;;5023473;28;20038;-68
2023/05/25 00:46:58;;;;;;;0.00;0.00;;;11.50;80.60;;;;;;5018106;28;20038;-68
2023/05/25 00:49:24;;;;;;;0.00;0.00;;;11.50;80.90;;;;;;5028273;28;20538;-68
2023/05/25 00:51:51;;;;;;;0.00;0.00;;;11.50;81.20;;;;;;5021437;28;20133;-68
2023/05/25 00:54:18;;;;;;;0.00;0.00;;;11.40;81.30;;;;;;5022145;28;20124;-68
2023/05/25 00:56:51;;;;;;;0.00;0.00;;;11.40;81.20;;;;;;5022518;28;20063;-68
2023/05/25 00:59:25;;;;;;;0.00;0.00;;;11.50;81.50;;;;;;5028435;28;20587;-68
2023/05/25 01:01:53;;;;;;;0.00;0.00;;;11.50;81.50;;;;;;5013937;28;20042;-68
2023/05/25 01:04:21;;;;;;;0.00;0.00;;;11.40;81.80;;;;;;5027895;28;20095;-68
2023/05/25 01:06:48;;;;;;;0.00;0.00;;;11.50;82.00;;;;;;5028321;28;20057;-68
2023/05/25 01:09:17;;;;;;;0.00;0.00;;;11.40;81.50;;;;;;5026543;28;20057;-68
2023/05/25 01:11:48;;;;;;;0.00;0.00;;;11.40;81.20;;;;;;5026977;28;20526;-68
2023/05/25 01:14:18;;;;;;;0.00;0.00;;;11.40;81.40;;;;;;5021415;28;20096;-68
2023/05/25 01:16:44;;;;;;;0.00;0.00;;;11.40;81.90;;;;;;5023543;28;20063;-68
2023/05/25 01:19:10;;;;;;;0.00;0.00;;;11.30;81.70;;;;;;5021010;28;20049;-68
2023/05/25 01:22:07;;;;;;;0.00;0.00;;;11.30;81.40;;;;;;5018250;28;20056;-68
2023/05/25 01:24:42;;;;;;;0.00;0.00;;;11.20;81.90;;;;;;5017531;28;20411;-68
2023/05/25 01:27:26;;;;;;;0.00;0.00;;;11.20;82.00;;;;;;5010651;28;20505;-67
2023/05/25 01:29:53;;;;;;;0.00;0.00;;;11.10;81.70;;;;;;5031566;28;20052;-68
2023/05/25 01:32:19;;;;;;;0.03;0.03;;;11.10;81.40;;;;;;5029997;28;20034;-68
2023/05/25 01:34:47;;;;;;;0.00;0.00;;;11.10;80.90;;;;;;5031255;28;20037;-68
2023/05/25 01:37:13;;;;;;;0.00;0.00;;;11.10;80.90;;;;;;5030146;28;20062;-68
2023/05/25 01:39:40;;;;;;;0.00;0.00;;;11.10;80.80;;;;;;5031300;28;20045;-68
2023/05/25 01:42:05;;;;;;;0.00;0.00;;;11.10;81.00;;;;;;5020200;28;20038;-68
2023/05/25 01:44:31;;;;;;;0.00;0.00;;;11.00;81.40;;;;;;5024577;28;20037;-68
2023/05/25 01:47:04;;;;;;;0.00;0.00;;;11.00;81.10;;;;;;5017236;28;20084;-68
2023/05/25 01:49:58;;;;;;;0.00;0.00;;;11.00;81.30;;;;;;5016999;28;20085;-68
2023/05/25 01:52:40;;;;;;;0.00;0.00;;;10.90;82.30;;;;;;5028911;28;20037;-68
2023/05/25 01:55:11;;;;;;;0.00;0.00;;;10.90;83.10;;;;;;5031002;28;20052;-68
2023/05/25 01:57:41;;;;;;;0.00;0.00;;;10.90;82.40;;;;;;5013471;28;20052;-68
2023/05/25 02:00:08;;;;;;;0.00;0.00;;;10.90;83.10;;;;;;5030952;28;20049;-68
2023/05/25 02:02:35;;;;;;;0.00;0.00;;;10.80;82.50;;;;;;5031226;28;20033;-68
2023/05/25 02:05:01;;;;;;;0.00;0.00;;;10.80;82.30;;;;;;5030286;28;20045;-68
2023/05/25 02:07:26;;;;;;;0.08;0.08;;;10.80;82.60;;;;;;5031334;28;20037;-68
2023/05/25 02:09:52;;;;;;;0.00;0.00;;;10.80;82.30;;;;;;5030842;28;20124;-68
2023/05/25 02:12:17;;;;;;;0.00;0.00;;;10.80;81.90;;;;;;5023723;28;20406;-67
2023/05/25 02:14:44;;;;;;;0.00;0.00;;;10.80;82.30;;;;;;5023002;28;20491;-68
2023/05/25 02:17:11;;;;;;;0.00;0.00;;;10.90;82.20;;;;;;5024756;28;20042;-68
2023/05/25 02:19:37;;;;;;;0.00;0.00;;;10.80;82.00;;;;;;5021000;28;20104;-68
2023/05/25 02:22:02;;;;;;;0.00;0.00;;;10.80;82.10;;;;;;5030683;28;20612;-68
2023/05/25 02:24:28;;;;;;;0.00;0.00;;;10.80;82.20;;;;;;5030736;28;20061;-67
2023/05/25 02:26:53;;;;;;;0.00;0.00;;;10.90;82.40;;;;;;5030513;28;20498;-68
2023/05/25 02:29:19;;;;;;;0.00;0.00;;;10.90;82.30;;;;;;5030650;28;20477;-68
2023/05/25 02:31:45;;;;;;;0.00;0.00;;;10.90;82.20;;;;;;5030345;28;20129;-68
2023/05/25 02:34:12;;;;;;;0.00;0.00;;;10.90;82.30;;;;;;5029655;28;20095;-68
2023/05/25 02:36:38;;;;;;;0.00;0.00;;;10.90;82.30;;;;;;5029050;28;20125;-68
2023/05/25 02:39:04;;;;;;;0.00;0.00;;;10.90;82.40;;;;;;5030036;28;20125;-68
2023/05/25 02:41:29;;;;;;;0.00;0.00;;;10.90;82.50;;;;;;5030347;28;20038;-68
2023/05/25 02:43:55;;;;;;;0.00;0.00;;;10.90;82.70;;;;;;5029984;28;20075;-68
2023/05/25 02:46:22;;;;;;;0.30;0.30;;;10.90;83.20;;;;;;5014362;28;20052;-68
2023/05/25 02:48:47;;;;;;;0.00;0.00;;;10.80;83.80;;;;;;5023051;28;20057;-68
2023/05/25 02:51:13;;;;;;;0.00;0.00;;;10.80;83.70;;;;;;5023651;28;20483;-68
2023/05/25 02:53:38;;;;;;;0.00;0.00;;;10.80;83.60;;;;;;5022935;28;20045;-68
2023/05/25 02:56:05;;;;;;;0.00;0.00;;;10.70;83.10;;;;;;5008033;28;20044;-68
2023/05/25 02:58:31;;;;;;;0.00;0.00;;;10.60;82.90;;;;;;5018266;28;20057;-68
2023/05/25 03:00:58;;;;;;;0.00;0.00;;;10.60;82.80;;;;;;5028659;28;20041;-68
2023/05/25 03:03:25;;;;;;;0.00;0.00;;;10.60;83.30;;;;;;5029994;28;20049;-68
2023/05/25 03:05:51;;;;;;;0.00;0.00;;;10.60;84.20;;;;;;5029521;28;20402;-68
2023/05/25 03:08:17;;;;;;;0.05;0.05;;;10.50;84.10;;;;;;5028162;28;20103;-68
2023/05/25 03:10:42;;;;;;;0.00;0.00;;;10.50;84.10;;;;;;5027921;28;20042;-68
2023/05/25 03:13:08;;;;;;;0.00;0.00;;;10.60;84.30;;;;;;5017553;28;20037;-68
2023/05/25 03:15:33;;;;;;;0.00;0.00;;;10.60;84.10;;;;;;5029766;28;20124;-68
2023/05/25 03:18:00;;;;;;;0.00;0.00;;;10.60;83.90;;;;;;5023339;28;20049;-68
2023/05/25 03:20:26;;;;;;;0.00;0.00;;;10.60;83.80;;;;;;5027853;28;20072;-68
2023/05/25 03:22:52;;;;;;;0.00;0.00;;;10.60;83.90;;;;;;5027777;28;20045;-68
2023/05/25 03:25:17;;;;;;;0.00;0.00;;;10.60;83.80;;;;;;5028141;28;20379;-68
2023/05/25 03:27:43;;;;;;;0.55;0.55;;;10.50;84.10;;;;;;5020486;28;20495;-68
2023/05/25 03:30:09;;;;;;;0.00;0.00;;;10.50;84.80;;;;;;5028748;28;20052;-68
2023/05/25 03:32:35;;;;;;;0.08;0.08;;;10.40;84.70;;;;;;5011705;28;20115;-68
2023/05/25 03:35:01;;;;;;;0.00;0.00;;;10.40;84.70;;;;;;5011966;28;20053;-68
2023/05/25 03:37:26;;;;;;;0.00;0.00;;;10.40;84.80;;;;;;5028738;28;20105;-68
2023/05/25 03:39:52;;;;;;;0.00;0.00;;;10.30;84.90;;;;;;5028820;28;20053;-68
2023/05/25 03:42:17;;;;;;;0.00;0.00;;;10.40;84.80;;;;;;5028061;28;20076;-68
2023/05/25 03:44:43;;;;;;;0.03;0.03;;;10.30;84.50;;;;;;5027445;28;20037;-68
2023/05/25 03:47:08;;;;;;;0.00;0.00;;;10.40;84.30;;;;;;5024693;28;20103;-68
2023/05/25 03:49:34;;;;;;;0.00;0.00;;;10.40;84.50;;;;;;5022797;28;20045;-68
2023/05/25 03:52:00;;;;;;;0.00;0.00;;;10.40;84.80;;;;;;5028280;28;20100;-68
2023/05/25 03:54:26;;;;;;;0.00;0.00;;;10.40;84.60;;;;;;5018254;28;20049;-68
2023/05/25 03:56:51;;;;;;;0.00;0.00;;;10.50;84.50;;;;;;5009863;28;20067;-67
2023/05/25 03:59:17;;;;;;;0.00;0.00;;;10.40;84.90;;;;;;5020851;28;20510;-67
2023/05/25 04:01:44;;;;;;;0.00;0.00;;;10.40;84.90;;;;;;5028730;28;20034;-67
2023/05/25 04:04:10;;;;;;;0.03;0.03;;;10.30;85.10;;;;;;5029366;28;20059;-68
2023/05/25 04:06:36;;;;;;;0.30;0.15;;;10.30;85.50;;;;;;5029029;28;20461;-68
2023/05/25 04:09:05;;;;;;;0.00;0.00;;;10.30;85.40;;;;;;5028662;28;20083;-68
2023/05/25 04:11:30;;;;;;;1.77;0.40;;;10.20;85.50;;;;;;5008754;28;20160;-68
2023/05/25 04:13:56;;;;;;;0.00;0.00;;;10.20;85.30;;;;;;5008912;28;20491;-68
2023/05/25 04:16:22;;;;;;;0.00;0.00;;;10.20;85.40;;;;;;5018724;28;20052;-68
2023/05/25 04:18:47;;;;;;;0.20;0.20;;;10.20;85.60;;;;;;5029019;28;20073;-68
2023/05/25 04:21:13;;;;;;;0.00;0.00;;;10.30;85.70;;;;;;5028385;28;20038;-67
2023/05/25 04:23:39;;;;;;;0.00;0.00;;;10.30;85.90;;;;;;5029488;28;20041;-68
2023/05/25 04:26:08;;;;;;;0.00;0.00;;;10.30;85.70;;;;;;5028607;28;20038;-68
2023/05/25 04:28:35;;;;;;;0.00;0.00;;;10.30;85.90;;;;;;5029299;28;20502;-68
2023/05/25 04:31:02;;;;;;;0.00;0.00;;;10.30;85.60;;;;;;5028019;28;20060;-68
2023/05/25 04:33:28;;;;;;;0.00;0.00;;;10.40;85.00;;;;;;5029679;28;20053;-68
2023/05/25 04:35:57;;;;;;;0.28;0.28;;;10.40;84.80;;;;;;5029255;28;20091;-68
2023/05/25 04:38:24;;;;;;;0.00;0.00;;;10.40;84.50;;;;;;5029450;28;20616;-68
2023/05/25 04:40:50;;;;;;;0.10;0.10;;;10.50;84.80;;;;;;5027433;28;20159;-68
2023/05/25 04:43:17;;;;;;;0.00;0.00;;;10.60;84.70;;;;;;5028983;28;20530;-68
2023/05/25 04:45:45;;;;;;;0.00;0.00;;;10.60;84.50;;;;;;5023639;28;20177;-68
2023/05/25 04:48:12;;;;;;;0.00;0.00;;;10.60;84.30;;;;;;5017167;28;20053;-68
2023/05/25 04:50:39;;;;;;;1.05;0.95;;;10.60;84.20;;;;;;5026420;28;20119;-68
2023/05/25 04:53:05;;;;;;;0.38;0.38;;;10.70;84.70;;;;;;5028339;28;20045;-68
2023/05/25 04:55:31;;;;;;;0.00;0.00;;;10.80;85.20;;;;;;5028672;28;20103;-68
2023/05/25 04:57:57;;;;;;;0.00;0.00;;;10.80;85.40;;;;;;5029128;28;20133;-68
2023/05/25 05:00:23;;;;;;;0.00;0.00;;;10.80;85.60;;;;;;5030595;28;20057;-68
2023/05/25 05:02:50;;;;;;;0.00;0.00;;;10.90;85.40;;;;;;5031474;28;20502;-68
2023/05/25 05:05:16;;;;;;;0.00;0.00;;;10.90;85.30;;;;;;5032547;28;20053;-68
2023/05/25 05:07:42;;;;;;;0.00;0.00;;;11.00;85.10;;;;;;5032352;28;20038;-68
2023/05/25 05:10:07;;;;;;;0.00;0.00;;;11.10;85.30;;;;;;5030022;28;20037;-68
2023/05/25 05:12:33;;;;;;;0.00;0.00;;;11.10;85.50;;;;;;5028495;28;20207;-68
2023/05/25 05:14:58;;;;;;;0.00;0.00;;;11.20;85.60;;;;;;5031348;28;20045;-68
2023/05/25 05:17:26;;;;;;;0.03;0.03;;;11.20;85.70;;;;;;5020709;28;20044;-68
2023/05/25 05:19:52;;;;;;;0.00;0.00;;;11.20;84.90;;;;;;5030731;28;20057;-68
2023/05/25 05:22:18;;;;;;;0.00;0.00;;;11.30;84.90;;;;;;5024426;28;20044;-68
2023/05/25 05:24:43;;;;;;;0.00;0.00;;;11.30;85.60;;;;;;5031156;28;20048;-67
2023/05/25 05:27:09;;;;;;;0.00;0.00;;;11.40;85.40;;;;;;5028934;28;20133;-69
2023/05/25 05:29:36;;;;;;;0.00;0.00;;;11.50;85.10;;;;;;5023651;28;20048;-69
2023/05/25 05:32:02;;;;;;;0.00;0.00;;;11.60;85.20;;;;;;5031054;28;20183;-68
2023/05/25 05:34:27;;;;;;;0.00;0.00;;;11.60;85.10;;;;;;5027584;28;20136;-69
2023/05/25 05:36:53;;;;;;;0.10;0.10;;;11.70;84.90;;;;;;5031755;28;20041;-68
2023/05/25 05:39:18;;;;;;;0.00;0.00;;;11.80;85.70;;;;;;5031479;28;20156;-68
2023/05/25 05:41:44;;;;;;;0.00;0.00;;;11.80;85.40;;;;;;5030045;28;20042;-69
2023/05/25 05:44:11;;;;;;;0.00;0.00;;;11.80;85.30;;;;;;5031867;28;20099;-69
2023/05/25 05:46:37;;;;;;;0.00;0.00;;;11.90;85.10;;;;;;5025679;28;20037;-68
2023/05/25 05:49:03;;;;;;;0.00;0.00;;;12.00;84.70;;;;;;5031760;28;20045;-68
2023/05/25 05:51:28;;;;;;;0.00;0.00;;;12.00;84.70;;;;;;5031398;28;20571;-69
2023/05/25 05:53:54;;;;;;;0.00;0.00;;;12.10;84.90;;;;;;5031472;28;20046;-69
2023/05/25 05:56:20;;;;;;;0.00;0.00;;;12.20;84.60;;;;;;5031845;28;20045;-69
2023/05/25 05:58:48;;;;;;;0.00;0.00;;;12.20;84.80;;;;;;5030411;28;20045;-69
2023/05/25 06:01:17;;;;;;;0.00;0.00;;;12.30;84.10;;;;;;5031011;28;20510;-69
2023/05/25 06:03:44;;;;;;;0.00;0.00;;;12.30;84.20;;;;;;5030551;28;20427;-69
2023/05/25 06:06:10;;;;;;;0.00;0.00;;;12.30;83.90;;;;;;5031078;28;20414;-69
2023/05/25 06:08:36;;;;;;;0.00;0.00;;;12.40;83.60;;;;;;5030842;28;20045;-68
2023/05/25 06:11:01;;;;;;;0.00;0.00;;;12.40;84.90;;;;;;5029220;28;20390;-68
2023/05/25 06:13:27;;;;;;;0.00;0.00;;;12.50;84.40;;;;;;5026010;28;20308;-68
2023/05/25 06:15:53;;;;;;;0.00;0.00;;;12.50;84.40;;;;;;5024004;28;20467;-68
2023/05/25 06:18:18;;;;;;;0.32;0.32;;;12.60;84.20;;;;;;5022982;28;20049;-68
2023/05/25 06:20:44;;;;;;;0.00;0.00;;;12.60;84.50;;;;;;5026915;28;20049;-68
2023/05/25 06:23:11;;;;;;;0.00;0.00;;;12.70;84.00;;;;;;5015745;28;20054;-64
2023/05/25 06:25:37;;;;;;;0.10;0.10;;;12.80;83.30;;;;;;5012910;28;20056;-64
2023/05/25 06:28:02;;;;;;;0.00;0.00;;;12.90;83.40;;;;;;5018234;28;20574;-64
2023/05/25 06:30:28;;;;;;;2.10;0.75;;;12.90;83.40;;;;;;5029121;28;20494;-64
2023/05/25 06:32:55;;;;;;;0.00;0.00;;;13.00;83.00;;;;;;5005994;28;20046;-64
2023/05/25 06:35:20;;;;;;;0.47;0.47;;;13.10;83.00;;;;;;5024682;28;20054;-64
2023/05/25 06:37:47;;;;;;;0.35;0.35;;;13.10;83.10;;;;;;5024080;28;20457;-64
2023/05/25 06:40:16;;;;;;;0.00;0.00;;;13.10;82.90;;;;;;5023540;28;20037;-64
2023/05/25 06:42:42;;;;;;;0.10;0.10;;;13.10;82.90;;;;;;5033088;28;20041;-66
2023/05/25 06:45:08;;;;;;;0.00;0.00;;;13.20;83.30;;;;;;5019841;28;20051;-65
2023/05/25 06:47:34;;;;;;;0.00;0.00;;;13.20;83.00;;;;;;5022238;28;20057;-65
2023/05/25 06:50:00;;;;;;;0.00;0.00;;;13.30;82.60;;;;;;5027032;28;20515;-65
2023/05/25 06:52:27;;;;;;;0.00;0.00;;;13.30;82.40;;;;;;5024802;28;20088;-65
2023/05/25 06:54:53;;;;;;;0.15;0.15;;;13.30;82.00;;;;;;5026709;28;20398;-65
2023/05/25 06:57:19;;;;;;;0.45;0.45;;;13.30;81.80;;;;;;5027065;28;20029;-66
2023/05/25 06:59:44;;;;;;;0.00;0.00;;;13.40;81.30;;;;;;5023703;28;20053;-66
2023/05/25 07:02:10;;;;;;;0.10;0.10;;;13.40;81.20;;;;;;5027093;28;20053;-64
2023/05/25 07:04:36;;;;;;;0.00;0.00;;;13.50;80.80;;;;;;5026995;28;20156;-65
2023/05/25 07:07:02;;;;;;;0.00;0.00;;;13.50;80.50;;;;;;5025125;28;20053;-64
2023/05/25 07:09:28;;;;;;;0.40;0.40;;;13.60;80.40;;;;;;5023039;28;20077;-65
2023/05/25 07:11:53;;;;;;;0.00;0.00;;;13.60;80.30;;;;;;5021935;28;20041;-64
2023/05/25 07:14:19;;;;;;;0.52;0.52;;;13.60;80.10;;;;;;5023004;28;20052;-64
2023/05/25 07:16:45;;;;;;;0.00;0.00;;;13.60;79.60;;;;;;5024368;28;20076;-66
2023/05/25 07:19:11;;;;;;;0.00;0.00;;;13.60;79.40;;;;;;5024261;28;20140;-65
2023/05/25 07:21:36;;;;;;;0.10;0.10;;;13.60;78.80;;;;;;5023683;28;20140;-65
2023/05/25 07:24:03;;;;;;;0.00;0.00;;;13.70;78.80;;;;;;5025573;28;20612;-64
2023/05/25 07:26:30;;;;;;;1.08;0.38;;;13.70;78.50;;;;;;5025596;28;20049;-65
2023/05/25 07:28:56;;;;;;;1.17;1.08;;;13.80;78.10;;;;;;5023907;28;20498;-65
2023/05/25 07:31:22;;;;;;;0.10;0.10;;;13.80;78.00;;;;;;5026394;28;20044;-66
2023/05/25 07:33:48;;;;;;;0.03;0.03;;;13.80;77.80;;;;;;5021913;28;20079;-66
2023/05/25 07:36:14;;;;;;;0.00;0.00;;;13.80;77.20;;;;;;5024769;28;20067;-66
2023/05/25 07:38:39;;;;;;;0.00;0.00;;;13.80;77.10;;;;;;5024425;28;20486;-65
2023/05/25 07:41:05;;;;;;;0.00;0.00;;;13.80;76.90;;;;;;5026842;28;20033;-67
2023/05/25 07:43:31;;;;;;;2.08;0.75;;;13.70;77.20;;;;;;5025003;28;20033;-65
2023/05/25 07:45:56;;;;;;;0.00;0.00;;;13.80;77.50;;;;;;5026799;28;20613;-65
2023/05/25 07:48:22;;;;;;;0.13;0.13;;;13.80;77.30;;;;;;5026112;28;20050;-65
2023/05/25 07:50:48;;;;;;;0.20;0.20;;;13.70;77.20;;;;;;5025484;28;20045;-65
2023/05/25 07:53:13;;;;;;;0.10;0.10;;;13.80;76.80;;;;;;5027262;28;20041;-65
2023/05/25 07:55:39;;;;;;;0.10;0.10;;;13.70;76.60;;;;;;5026047;28;20049;-65
2023/05/25 07:58:06;;;;;;;0.00;0.00;;;13.70;76.00;;;;;;5023524;28;20049;-63
2023/05/25 08:00:32;;;;;;;6.15;3.47;;;13.80;75.80;;;;;;5024440;28;20414;-64
2023/05/25 08:02:57;;;;;;;0.00;0.00;;;13.90;76.10;;;;;;5025366;28;20046;-64
2023/05/25 08:05:23;;;;;;;0.00;0.00;;;14.00;75.90;;;;;;5024897;28;20041;-64
2023/05/25 08:07:49;;;;;;;0.00;0.00;;;14.10;75.70;;;;;;5025996;28;20041;-64
2023/05/25 08:10:15;;;;;;;0.00;0.00;;;14.10;75.40;;;;;;5026108;28;20510;-64
2023/05/25 08:12:40;;;;;;;1.20;1.10;;;14.20;74.70;;;;;;5025832;28;20090;-65
2023/05/25 08:15:06;;;;;;;0.10;0.10;;;14.30;74.20;;;;;;5026085;28;20053;-64
2023/05/25 08:17:32;;;;;;;0.30;0.22;;;14.40;73.40;;;;;;5026973;28;20504;-64
2023/05/25 08:19:57;;;;;;;0.20;0.20;;;14.30;73.20;;;;;;5025306;28;20104;-64
2023/05/25 08:22:23;;;;;;;0.00;0.00;;;14.30;73.30;;;;;;5023206;28;20060;-66
2023/05/25 08:24:49;;;;;;;0.00;0.00;;;14.30;73.40;;;;;;5021820;28;20045;-66
2023/05/25 08:27:15;;;;;;;1.38;1.25;;;14.30;73.10;;;;;;5024837;28;20045;-66
2023/05/25 08:29:41;;;;;;;2.50;2.30;;;14.40;73.30;;;;;;5007427;28;20094;-66
2023/05/25 08:32:07;;;;;;;0.00;0.00;;;14.30;72.20;;;;;;5019937;28;20523;-66
2023/05/25 08:34:33;;;;;;;0.10;0.10;;;14.30;72.00;;;;;;5023028;28;20528;-66
2023/05/25 08:36:58;;;;;;;0.00;0.00;;;14.10;72.10;;;;;;5024611;28;20125;-66
2023/05/25 08:39:24;;;;;;;0.00;0.00;;;14.10;72.20;;;;;;5025613;28;20041;-65
2023/05/25 08:41:50;;;;;;;1.02;1.02;;;14.00;71.50;;;;;;5025758;28;20095;-66
2023/05/25 08:44:16;;;;;;;0.00;0.00;;;14.10;70.20;;;;;;5023371;28;20077;-66
2023/05/25 08:46:42;;;;;;;0.00;0.00;;;14.10;69.60;;;;;;5023356;28;20041;-66
2023/05/25 08:49:12;;;;;;;0.00;0.00;;;14.10;68.80;;;;;;5021460;28;20121;-66
2023/05/25 08:51:46;;;;;;;0.00;0.00;;;14.10;68.30;;;;;;5020012;28;20085;-66
2023/05/25 08:54:16;;;;;;;0.00;0.00;;;14.10;68.40;;;;;;5025271;28;20080;-65
2023/05/25 08:56:51;;;;;;;0.10;0.10;;;14.10;68.80;;;;;;5023899;28;20057;-66
2023/05/25 08:59:39;;;;;;;0.10;0.10;;;14.10;68.30;;;;;;5025278;28;20498;-66
2023/05/25 09:02:25;;;;;;;0.00;0.00;;;14.10;68.10;;;;;;5022731;28;20060;-66
2023/05/25 09:04:51;;;;;;;0.25;0.25;;;14.20;68.20;;;;;;5023102;28;20056;-65
2023/05/25 09:07:17;;;;;;;1.13;1.05;;;14.30;67.60;;;;;;5025119;28;20038;-66
2023/05/25 09:09:45;;;;;;;0.00;0.00;;;14.40;67.30;;;;;;5023802;28;20042;-66
2023/05/25 09:12:11;;;;;;;0.00;0.00;;;14.40;66.30;;;;;;5006217;28;20061;-66
2023/05/25 09:14:44;;;;;;;0.00;0.00;;;14.40;65.70;;;;;;5024677;28;20052;-67
2023/05/25 09:17:11;;;;;;;0.00;0.00;;;14.50;66.40;;;;;;5021139;28;20057;-67
2023/05/25 09:19:36;;;;;;;0.10;0.10;;;14.50;65.60;;;;;;5023817;28;20061;-66
2023/05/25 09:22:02;;;;;;;0.00;0.00;;;14.50;65.00;;;;;;5022450;28;20103;-66
2023/05/25 09:24:28;;;;;;;0.30;0.30;;;14.50;65.50;;;;;;5024523;28;20125;-66
2023/05/25 09:26:53;;;;;;;0.75;0.75;;;14.60;65.70;;;;;;5024147;28;20057;-66
2023/05/25 09:29:20;;;;;;;0.10;0.10;;;14.70;65.20;;;;;;5023735;28;20375;-67
2023/05/25 09:31:46;;;;;;;3.40;2.35;;;14.80;63.70;;;;;;5005139;28;20057;-66
2023/05/25 09:34:12;;;;;;;0.10;0.10;;;14.70;63.00;;;;;;5023341;28;20406;-67
2023/05/25 09:36:40;;;;;;;1.20;1.13;;;14.70;63.40;;;;;;5023630;28;20056;-65
2023/05/25 09:39:09;;;;;;;0.00;0.00;;;14.70;63.00;;;;;;5023677;28;20037;-66
2023/05/25 09:41:34;;;;;;;0.00;0.00;;;14.80;63.40;;;;;;5024724;28;20868;-66
2023/05/25 09:44:00;;;;;;;0.10;0.10;;;14.90;63.00;;;;;;5021623;28;20125;-66
2023/05/25 09:46:27;;;;;;;0.70;0.63;;;14.90;62.80;;;;;;5026164;28;20064;-66
2023/05/25 09:48:53;;;;;;;0.00;0.00;;;14.90;62.60;;;;;;5027738;28;21029;-66
2023/05/25 09:51:20;;;;;;;0.00;0.00;;;14.90;61.80;;;;;;5025514;28;20050;-67
2023/05/25 09:53:46;;;;;;;0.00;0.00;;;14.80;62.00;;;;;;5022770;28;20048;-68
2023/05/25 09:56:12;;;;;;;0.10;0.10;;;14.90;61.60;;;;;;5027213;28;20438;-67
2023/05/25 09:58:39;;;;;;;0.95;0.95;;;15.00;62.10;;;;;;5011543;28;20041;-67
2023/05/25 10:01:06;;;;;;;0.38;0.30;;;15.00;60.40;;;;;;5028740;28;20053;-68
2023/05/25 10:03:32;;;;;;;0.20;0.20;;;15.00;60.80;;;;;;5029452;28;20099;-67
2023/05/25 10:05:57;;;;;;;0.20;0.20;;;15.00;60.90;;;;;;5028094;28;20037;-66
2023/05/25 10:08:24;;;;;;;0.03;0.03;;;15.00;60.90;;;;;;5009537;28;20407;-68
2023/05/25 10:10:50;;;;;;;0.00;0.00;;;14.90;60.40;;;;;;5026556;28;20135;-65
2023/05/25 10:13:24;;;;;;;0.00;0.00;;;14.90;60.90;;;;;;5027323;28;20049;-66
2023/05/25 10:15:52;;;;;;;0.00;0.00;;;14.90;61.80;;;;;;5027721;28;20083;-66
2023/05/25 10:18:24;;;;;;;0.00;0.00;;;15.00;61.20;;;;;;5027134;28;20521;-67
2023/05/25 10:20:56;;;;;;;0.65;0.57;;;15.10;61.60;;;;;;5028087;28;20065;-67
2023/05/25 10:23:23;;;;;;;1.27;0.88;;;15.10;61.30;;;;;;5026695;28;20038;-67
2023/05/25 10:25:52;;;;;;;0.00;0.00;;;15.10;60.00;;;;;;5009556;28;20076;-66
2023/05/25 10:28:26;;;;;;;1.08;0.90;;;15.10;60.80;;;;;;5027251;28;20049;-66
2023/05/25 10:30:52;;;;;;;1.17;0.88;;;15.20;61.10;;;;;;5028171;28;20046;-67
2023/05/25 10:33:19;;;;;;;0.65;0.65;;;15.20;61.30;;;;;;5025795;28;20072;-67
2023/05/25 10:35:45;;;;;;;1.55;0.95;;;15.30;61.20;;;;;;5028152;28;20118;-66
2023/05/25 10:38:12;;;;;;;0.00;0.00;;;15.40;60.20;;;;;;5026649;28;20084;-67
2023/05/25 10:40:37;;;;;;;0.00;0.00;;;15.50;59.80;;;;;;5025662;28;20080;-66
2023/05/25 10:43:05;;;;;;;0.40;0.30;;;15.50;59.90;;;;;;5026164;28;20079;-66
2023/05/25 10:45:31;;;;;;;1.38;0.30;;;15.40;59.80;;;;;;5024907;28;20072;-66
2023/05/25 10:47:57;;;;;;;0.40;0.40;;;15.50;59.20;;;;;;5025457;28;20447;-67
2023/05/25 10:50:25;;;;;;;0.35;0.35;;;15.40;59.30;;;;;;5020510;28;20115;-67
2023/05/25 10:53:20;;;;;;;0.38;0.38;;;15.30;60.20;;;;;;5023442;28;20045;-67
2023/05/25 10:56:02;;;;;;;1.58;1.48;;;15.20;60.10;;;;;;5006878;28;20410;-67
2023/05/25 10:58:29;;;;;;;0.00;0.00;;;15.20;60.40;;;;;;5027062;28;20041;-66
2023/05/25 11:01:08;;;;;;;0.63;0.63;;;15.20;60.60;;;;;;5025434;28;20068;-66
2023/05/25 11:03:42;;;;;;;0.25;0.25;;;15.30;61.10;;;;;;5023754;28;20132;-66
2023/05/25 11:06:09;;;;;;;0.00;0.00;;;15.30;61.20;;;;;;5023544;28;20108;-66
2023/05/25 11:08:54;;;;;;;0.30;0.30;;;15.30;60.80;;;;;;5026492;28;20041;-66
2023/05/25 11:11:21;;;;;;;0.43;0.43;;;15.30;60.50;;;;;;5026129;28;20049;-66
2023/05/25 11:13:48;;;;;;;0.00;0.00;;;15.40;60.20;;;;;;5026947;28;20053;-66
2023/05/25 11:16:23;;;;;;;1.35;1.25;;;15.40;59.60;;;;;;5027676;28;20094;-66
2023/05/25 11:18:53;;;;;;;0.82;0.65;;;15.40;59.60;;;;;;5024432;28;20062;-66
2023/05/25 11:21:41;;;;;;;0.10;0.10;;;15.40;59.40;;;;;;5026689;28;20087;-66
2023/05/25 11:24:16;;;;;;;0.00;0.00;;;15.40;59.90;;;;;;5025093;28;20041;-67
2023/05/25 11:26:56;;;;;;;0.00;0.00;;;15.50;60.30;;;;;;5025890;28;20045;-66
2023/05/25 11:29:24;;;;;;;0.00;0.00;;;15.50;59.90;;;;;;5024345;28;20034;-66
2023/05/25 11:31:54;;;;;;;0.30;0.30;;;15.60;60.50;;;;;;5023257;28;20413;-66
2023/05/25 11:34:24;;;;;;;0.00;0.00;;;15.60;59.90;;;;;;5023693;28;20068;-66
2023/05/25 11:36:56;;;;;;;0.10;0.10;;;15.60;59.70;;;;;;5022043;28;20050;-66
2023/05/25 11:39:22;;;;;;;0.10;0.10;;;15.60;60.10;;;;;;5024109;28;20128;-66
2023/05/25 11:41:55;;;;;;;0.70;0.68;;;15.50;60.10;;;;;;5025786;28;20077;-66
2023/05/25 11:44:30;;;;;;;0.10;0.10;;;15.50;60.50;;;;;;5027065;28;20042;-64
2023/05/25 11:46:56;;;;;;;0.08;0.08;;;15.50;60.50;;;;;;5024305;28;20037;-64
2023/05/25 11:49:24;;;;;;;0.00;0.00;;;15.50;60.50;;;;;;5025560;28;20053;-65
2023/05/25 11:51:50;;;;;;;2.08;1.65;;;15.50;61.40;;;;;;5025735;28;20060;-66
2023/05/25 11:54:27;;;;;;;0.00;0.00;;;15.50;61.30;;;;;;5023375;28;20045;-66
2023/05/25 11:57:03;;;;;;;0.08;0.08;;;15.60;60.50;;;;;;5025656;28;20042;-66
2023/05/25 11:59:29;;;;;;;0.30;0.30;;;15.70;60.50;;;;;;5025262;28;20099;-66
2023/05/25 12:02:00;;;;;;;0.00;0.00;;;15.60;60.60;;;;;;5025567;28;20565;-66
2023/05/25 12:04:27;;;;;;;0.00;0.00;;;15.60;60.80;;;;;;5025640;28;20095;-66
2023/05/25 12:07:00;;;;;;;0.00;0.00;;;15.60;61.00;;;;;;5023150;28;20053;-66
2023/05/25 12:09:25;;;;;;;0.40;0.40;;;15.60;61.00;;;;;;5025858;28;20562;-66
2023/05/25 12:11:51;;;;;;;0.57;0.57;;;15.90;60.50;;;;;;5021475;28;20073;-65
2023/05/25 12:14:16;;;;;;;0.35;0.35;;;16.00;59.80;;;;;;5022884;28;20037;-65
2023/05/25 12:16:43;;;;;;;1.55;0.88;;;16.00;59.70;;;;;;5023166;28;20048;-65
2023/05/25 12:19:10;;;;;;;1.05;0.88;;;15.90;58.70;;;;;;5025410;28;20057;-65
2023/05/25 12:21:37;;;;;;;0.00;0.00;;;15.90;58.90;;;;;;5024197;28;20507;-65
2023/05/25 12:24:04;;;;;;;0.00;0.00;;;15.90;59.20;;;;;;5023553;28;20060;-65
2023/05/25 12:26:31;;;;;;;0.00;0.00;;;16.00;59.60;;;;;;5023504;28;20107;-65
2023/05/25 12:29:08;;;;;;;0.10;0.10;;;16.00;59.50;;;;;;5025826;28;20038;-64
2023/05/25 12:31:37;;;;;;;0.75;0.75;;;15.90;60.40;;;;;;5023554;28;20046;-64
2023/05/25 12:34:16;;;;;;;0.08;0.08;;;15.90;60.10;;;;;;5025481;28;20041;-66
2023/05/25 12:36:43;;;;;;;0.40;0.35;;;15.80;60.30;;;;;;5020191;28;20053;-65
2023/05/25 12:39:11;;;;;;;0.35;0.35;;;15.60;59.80;;;;;;5025537;28;20410;-65
2023/05/25 12:41:50;;;;;;;1.00;1.00;;;15.50;60.00;;;;;;5025086;28;20440;-65
2023/05/25 12:44:26;;;;;;;0.13;0.13;;;15.50;60.20;;;;;;5025395;28;20049;-65
2023/05/25 12:46:53;;;;;;;4.90;1.98;;;15.60;60.70;;;;;;5025405;28;20462;-65
2023/05/25 12:49:27;;;;;;;1.58;1.48;;;15.70;60.70;;;;;;5024528;28;20045;-64